Capitol Logistics 2217


KRFD
Chicago/Rockford International Airport
Rockford, Illinois, US
KSDF
Louisville International Airport-Standiford Field
Louisville, Kentucky, US

Activity Log

Date Flight Route Aircraft Duration
12/02/2019 CPX2217 AHMED JOT RAMSE FRIZN5 B763 1h 05m
11/18/2019 CPX2217 JOT J30 MOPER J84 RIGGL RAMSE FRIZN5 B763 1h 08m

Route Details

Aircraft Information
Primary: Boeing 767-300BDSF
Backup: Boeing 757-200SF
Date Restrictions
Between:Nov 16, 2019
Dec 31, 2019
Route Data
Distance: 287nm
Sched. Duration: 0h 48m
Avg. Duration: 1h 06m (+59m)
Times Flown: 2
Recm'd Route: AHMED JOT RAMSE FRIZN5
Planned Altitude: 29,000ft
Origin Wx: KRFD 030154Z 24008KT 10SM SCT200 BKN250 29/18 A2983 RMK AO2 SLP094 T02890178
Dest. Wx: KSDF 030156Z 21007KT 10SM FEW150 FEW250 27/14 A2998 RMK AO2 SLP148 T02720144
Notes: SEASONAL FLIGHT | UPS SURGE OPS CONTRACT

Financial History
Total Freight: 95,274lbs
Average Load: 47,637lbs/flt
Fuel Used: 21,405lbs
Avg. Fuel Used: 10,703lbs/flt
Fuel Expense: $15,840
Avg. Fuel Expense: $7,920
Avg. Fuel Cost: $0.74/lbs
Total Gross Income: $140,053
Pilot Pay: $378
Total Expenses: $15,230
Total Revenue: $108,365
Average Revenue: $70,026.39